Weather at Campo di volo BATFLY

Public forecast

Using degrees Celsius for public forecast. Weather courtesy of forecast.io.

Closest aviation weather report (METAR) to Campo di volo BATFLY

Closest report is Amendola Air Base, 25.3 nm (46.8 km) WNW.

2024/04/16 15:55 (retrieved 1 hour ago)

LIBA 161555Z 23009KT CAVOK 24/10 Q1001 RMK OVC SCT100 OVC200 VIS MIN 9999 WIND THR11 23013KT WIND THR29 /////KT BLU

Closest aviation forecast (TAF) to Campo di volo BATFLY

Closest forecast is Bari Karol Wojtyła Airport, 27.6 nm (51.1 km) ESE.

2024/04/16 12:00 (retrieved 5 hours ago)

TAF LIBD 161100Z 1612/1712 21012KT 9999 FEW030 TEMPO 1612/1703 RA BECMG 1704/1706 30015KT